sensor_id;sensor_type;location;lat;lon;timestamp;temperature;humidity
69677;DHT22;56914;51.058;9.326;2022-07-29T01:35:41;22.00;37.90
69677;DHT22;56914;51.058;9.326;2022-07-29T01:38:13;22.00;37.80
69677;DHT22;56914;51.058;9.326;2022-07-29T01:41:19;22.10;38.00
69677;DHT22;56914;51.058;9.326;2022-07-29T01:44:16;22.00;38.00
69677;DHT22;56914;51.058;9.326;2022-07-29T01:46:49;21.90;38.10
69677;DHT22;56914;51.058;9.326;2022-07-29T01:49:38;21.90;38.20
69677;DHT22;56914;51.058;9.326;2022-07-29T01:52:15;21.90;38.30
69677;DHT22;56914;51.058;9.326;2022-07-29T01:54:49;21.80;38.50
69677;DHT22;56914;51.058;9.326;2022-07-29T01:57:19;21.80;38.90
69677;DHT22;56914;51.058;9.326;2022-07-29T01:59:57;21.80;38.70
69677;DHT22;56914;51.058;9.326;2022-07-29T02:02:26;21.70;38.70
69677;DHT22;56914;51.058;9.326;2022-07-29T02:04:55;21.80;38.70
69677;DHT22;56914;51.058;9.326;2022-07-29T02:07:26;21.70;38.70
69677;DHT22;56914;51.058;9.326;2022-07-29T02:09:55;21.70;38.70
69677;DHT22;56914;51.058;9.326;2022-07-29T02:12:24;21.70;38.90
69677;DHT22;56914;51.058;9.326;2022-07-29T02:14:53;21.60;38.90
69677;DHT22;56914;51.058;9.326;2022-07-29T02:17:22;21.60;39.00
69677;DHT22;56914;51.058;9.326;2022-07-29T02:19:51;21.50;39.00
69677;DHT22;56914;51.058;9.326;2022-07-29T02:22:21;21.50;39.20
69677;DHT22;56914;51.058;9.326;2022-07-29T02:24:52;21.50;39.40
69677;DHT22;56914;51.058;9.326;2022-07-29T02:27:20;21.40;39.40
69677;DHT22;56914;51.058;9.326;2022-07-29T02:29:49;21.40;39.60
69677;DHT22;56914;51.058;9.326;2022-07-29T02:32:18;21.30;39.70
69677;DHT22;56914;51.058;9.326;2022-07-29T02:34:47;21.20;39.90
69677;DHT22;56914;51.058;9.326;2022-07-29T02:37:18;21.20;40.00
69677;DHT22;56914;51.058;9.326;2022-07-29T02:39:46;21.10;40.10
69677;DHT22;56914;51.058;9.326;2022-07-29T02:42:19;21.10;40.30
69677;DHT22;56914;51.058;9.326;2022-07-29T02:44:48;21.00;40.50
69677;DHT22;56914;51.058;9.326;2022-07-29T02:47:17;20.90;40.40
69677;DHT22;56914;51.058;9.326;2022-07-29T02:49:48;20.90;40.50
69677;DHT22;56914;51.058;9.326;2022-07-29T02:52:20;21.00;40.60
69677;DHT22;56914;51.058;9.326;2022-07-29T02:54:51;21.00;40.70
69677;DHT22;56914;51.058;9.326;2022-07-29T02:57:22;21.00;40.80
69677;DHT22;56914;51.058;9.326;2022-07-29T02:59:54;21.00;41.00
69677;DHT22;56914;51.058;9.326;2022-07-29T03:02:25;20.90;40.90
69677;DHT22;56914;51.058;9.326;2022-07-29T03:04:53;21.00;41.00
69677;DHT22;56914;51.058;9.326;2022-07-29T03:07:23;21.00;41.80
69677;DHT22;56914;51.058;9.326;2022-07-29T03:09:52;21.00;41.20
69677;DHT22;56914;51.058;9.326;2022-07-29T03:12:21;21.00;41.20
69677;DHT22;56914;51.058;9.326;2022-07-29T03:14:50;21.00;41.30
69677;DHT22;56914;51.058;9.326;2022-07-29T03:17:18;21.00;41.30
69677;DHT22;56914;51.058;9.326;2022-07-29T03:19:46;21.10;41.40
69677;DHT22;56914;51.058;9.326;2022-07-29T03:22:14;21.00;41.50
69677;DHT22;56914;51.058;9.326;2022-07-29T03:24:44;21.00;41.80
69677;DHT22;56914;51.058;9.326;2022-07-29T03:27:12;20.90;42.00
69677;DHT22;56914;51.058;9.326;2022-07-29T03:29:42;20.90;42.20
69677;DHT22;56914;51.058;9.326;2022-07-29T03:32:16;20.90;42.30
69677;DHT22;56914;51.058;9.326;2022-07-29T03:34:50;20.80;42.30
69677;DHT22;56914;51.058;9.326;2022-07-29T03:37:18;20.90;42.50
69677;DHT22;56914;51.058;9.326;2022-07-29T03:39:46;20.90;42.50
69677;DHT22;56914;51.058;9.326;2022-07-29T03:42:16;20.80;42.60
69677;DHT22;56914;51.058;9.326;2022-07-29T03:44:51;20.80;42.80
69677;DHT22;56914;51.058;9.326;2022-07-29T03:47:20;20.70;43.00
69677;DHT22;56914;51.058;9.326;2022-07-29T03:50:10;20.60;43.20
69677;DHT22;56914;51.058;9.326;2022-07-29T03:52:39;20.60;43.20
69677;DHT22;56914;51.058;9.326;2022-07-29T03:55:11;20.60;43.20
69677;DHT22;56914;51.058;9.326;2022-07-29T03:57:40;20.50;43.30
69677;DHT22;56914;51.058;9.326;2022-07-29T04:00:10;20.40;43.60
69677;DHT22;56914;51.058;9.326;2022-07-29T04:02:38;20.30;43.80
69677;DHT22;56914;51.058;9.326;2022-07-29T04:05:11;20.30;43.80
69677;DHT22;56914;51.058;9.326;2022-07-29T04:07:39;20.20;43.80
69677;DHT22;56914;51.058;9.326;2022-07-29T04:10:07;20.20;44.00
69677;DHT22;56914;51.058;9.326;2022-07-29T04:12:36;20.30;44.10
69677;DHT22;56914;51.058;9.326;2022-07-29T04:15:04;20.20;44.20
69677;DHT22;56914;51.058;9.326;2022-07-29T04:17:33;20.10;44.40
69677;DHT22;56914;51.058;9.326;2022-07-29T04:20:02;20.10;44.70
69677;DHT22;56914;51.058;9.326;2022-07-29T04:22:30;20.00;44.90
69677;DHT22;56914;51.058;9.326;2022-07-29T04:24:58;20.00;45.00
69677;DHT22;56914;51.058;9.326;2022-07-29T04:27:30;20.00;45.10
69677;DHT22;56914;51.058;9.326;2022-07-29T04:29:57;20.10;45.20
69677;DHT22;56914;51.058;9.326;2022-07-29T04:32:26;20.10;45.30
69677;DHT22;56914;51.058;9.326;2022-07-29T04:34:55;20.10;45.30
69677;DHT22;56914;51.058;9.326;2022-07-29T04:37:23;20.20;45.50
69677;DHT22;56914;51.058;9.326;2022-07-29T04:39:52;20.20;45.50
69677;DHT22;56914;51.058;9.326;2022-07-29T04:42:19;20.30;45.50
69677;DHT22;56914;51.058;9.326;2022-07-29T04:44:53;20.50;45.50
69677;DHT22;56914;51.058;9.326;2022-07-29T04:47:21;20.60;45.50
69677;DHT22;56914;51.058;9.326;2022-07-29T04:49:49;20.70;46.20
69677;DHT22;56914;51.058;9.326;2022-07-29T04:52:18;20.80;45.40
69677;DHT22;56914;51.058;9.326;2022-07-29T04:54:46;20.90;45.20
69677;DHT22;56914;51.058;9.326;2022-07-29T04:57:14;21.00;45.10
69677;DHT22;56914;51.058;9.326;2022-07-29T04:59:42;21.00;45.00
69677;DHT22;56914;51.058;9.326;2022-07-29T05:02:11;21.00;45.00
69677;DHT22;56914;51.058;9.326;2022-07-29T05:04:39;21.10;45.00
69677;DHT22;56914;51.058;9.326;2022-07-29T05:07:07;21.10;44.90
69677;DHT22;56914;51.058;9.326;2022-07-29T05:09:36;21.10;45.00
69677;DHT22;56914;51.058;9.326;2022-07-29T05:12:04;21.10;45.00
69677;DHT22;56914;51.058;9.326;2022-07-29T05:14:32;21.10;44.90
69677;DHT22;56914;51.058;9.326;2022-07-29T05:17:00;21.10;44.80
69677;DHT22;56914;51.058;9.326;2022-07-29T05:19:28;21.20;44.70
69677;DHT22;56914;51.058;9.326;2022-07-29T05:21:56;21.20;44.60
69677;DHT22;56914;51.058;9.326;2022-07-29T05:24:24;21.10;44.50
69677;DHT22;56914;51.058;9.326;2022-07-29T05:26:53;21.10;44.30
69677;DHT22;56914;51.058;9.326;2022-07-29T05:29:21;21.20;44.30
69677;DHT22;56914;51.058;9.326;2022-07-29T05:32:09;21.20;44.20
69677;DHT22;56914;51.058;9.326;2022-07-29T05:34:43;21.30;44.10
69677;DHT22;56914;51.058;9.326;2022-07-29T05:37:17;21.30;44.00
69677;DHT22;56914;51.058;9.326;2022-07-29T05:39:45;21.40;44.00
69677;DHT22;56914;51.058;9.326;2022-07-29T05:42:17;21.40;43.80
69677;DHT22;56914;51.058;9.326;2022-07-29T05:44:45;21.50;43.90
69677;DHT22;56914;51.058;9.326;2022-07-29T05:47:13;21.60;43.70
69677;DHT22;56914;51.058;9.326;2022-07-29T05:49:42;21.60;43.50
69677;DHT22;56914;51.058;9.326;2022-07-29T05:52:10;21.60;43.30
69677;DHT22;56914;51.058;9.326;2022-07-29T05:54:45;21.70;43.50
69677;DHT22;56914;51.058;9.326;2022-07-29T05:57:29;21.70;43.70
69677;DHT22;56914;51.058;9.326;2022-07-29T05:59:57;21.70;43.80
69677;DHT22;56914;51.058;9.326;2022-07-29T06:02:30;21.80;43.90
69677;DHT22;56914;51.058;9.326;2022-07-29T06:05:12;21.70;44.00
69677;DHT22;56914;51.058;9.326;2022-07-29T06:07:42;21.70;43.90
69677;DHT22;56914;51.058;9.326;2022-07-29T06:10:17;21.80;44.10
69677;DHT22;56914;51.058;9.326;2022-07-29T06:12:50;21.90;44.30
69677;DHT22;56914;51.058;9.326;2022-07-29T06:15:18;21.90;44.40
69677;DHT22;56914;51.058;9.326;2022-07-29T06:17:47;21.90;44.60
69677;DHT22;56914;51.058;9.326;2022-07-29T06:20:27;21.90;44.70
69677;DHT22;56914;51.058;9.326;2022-07-29T06:22:57;22.00;44.80
69677;DHT22;56914;51.058;9.326;2022-07-29T06:25:25;22.00;44.80
69677;DHT22;56914;51.058;9.326;2022-07-29T06:28:09;22.10;44.70
69677;DHT22;56914;51.058;9.326;2022-07-29T06:30:37;22.10;44.80
69677;DHT22;56914;51.058;9.326;2022-07-29T06:33:05;22.00;44.70
69677;DHT22;56914;51.058;9.326;2022-07-29T06:35:36;22.00;44.80
69677;DHT22;56914;51.058;9.326;2022-07-29T06:38:08;22.00;44.80
69677;DHT22;56914;51.058;9.326;2022-07-29T06:40:56;22.00;44.80
69677;DHT22;56914;51.058;9.326;2022-07-29T06:43:37;22.10;45.20
69677;DHT22;56914;51.058;9.326;2022-07-29T06:46:16;22.00;45.60
69677;DHT22;56914;51.058;9.326;2022-07-29T06:48:46;21.90;46.70
69677;DHT22;56914;51.058;9.326;2022-07-29T06:51:15;21.80;47.50
69677;DHT22;56914;51.058;9.326;2022-07-29T06:53:49;21.70;48.20
69677;DHT22;56914;51.058;9.326;2022-07-29T06:56:28;21.70;48.90
69677;DHT22;56914;51.058;9.326;2022-07-29T06:58:58;21.60;49.30
69677;DHT22;56914;51.058;9.326;2022-07-29T07:01:27;21.50;49.80
69677;DHT22;56914;51.058;9.326;2022-07-29T07:03:55;21.50;50.30
69677;DHT22;56914;51.058;9.326;2022-07-29T07:06:23;21.30;50.90
69677;DHT22;56914;51.058;9.326;2022-07-29T07:08:51;21.20;51.70
69677;DHT22;56914;51.058;9.326;2022-07-29T07:11:19;21.00;52.10
69677;DHT22;56914;51.058;9.326;2022-07-29T07:13:47;20.90;53.20
69677;DHT22;56914;51.058;9.326;2022-07-29T07:16:16;20.70;53.90
69677;DHT22;56914;51.058;9.326;2022-07-29T07:18:45;20.60;54.50
69677;DHT22;56914;51.058;9.326;2022-07-29T07:21:13;20.40;55.50
69677;DHT22;56914;51.058;9.326;2022-07-29T07:23:45;20.30;56.40
69677;DHT22;56914;51.058;9.326;2022-07-29T07:26:13;20.10;57.30
69677;DHT22;56914;51.058;9.326;2022-07-29T07:28:42;20.00;58.20
69677;DHT22;56914;51.058;9.326;2022-07-29T07:31:10;19.90;58.60
69677;DHT22;56914;51.058;9.326;2022-07-29T07:33:39;19.80;59.10
69677;DHT22;56914;51.058;9.326;2022-07-29T07:36:07;19.70;59.10
69677;DHT22;56914;51.058;9.326;2022-07-29T07:38:35;19.70;59.40
69677;DHT22;56914;51.058;9.326;2022-07-29T07:41:03;19.60;59.60
69677;DHT22;56914;51.058;9.326;2022-07-29T07:43:33;19.60;59.60
69677;DHT22;56914;51.058;9.326;2022-07-29T07:46:01;19.60;59.40
69677;DHT22;56914;51.058;9.326;2022-07-29T07:48:30;19.80;59.30
69677;DHT22;56914;51.058;9.326;2022-07-29T07:50:59;19.90;58.90
69677;DHT22;56914;51.058;9.326;2022-07-29T07:53:30;20.10;58.30
69677;DHT22;56914;51.058;9.326;2022-07-29T07:55:58;20.30;58.00
69677;DHT22;56914;51.058;9.326;2022-07-29T07:58:37;20.50;57.60
69677;DHT22;56914;51.058;9.326;2022-07-29T08:01:05;20.80;56.80
69677;DHT22;56914;51.058;9.326;2022-07-29T08:03:33;20.90;56.40
69677;DHT22;56914;51.058;9.326;2022-07-29T08:06:02;21.20;55.80
69677;DHT22;56914;51.058;9.326;2022-07-29T08:08:31;21.70;55.50
69677;DHT22;56914;51.058;9.326;2022-07-29T08:10:59;22.20;54.50
69677;DHT22;56914;51.058;9.326;2022-07-29T08:13:35;22.60;53.70
69677;DHT22;56914;51.058;9.326;2022-07-29T08:16:04;22.70;52.80
69677;DHT22;56914;51.058;9.326;2022-07-29T08:18:41;22.90;52.10
69677;DHT22;56914;51.058;9.326;2022-07-29T08:21:11;22.90;51.50
69677;DHT22;56914;51.058;9.326;2022-07-29T08:23:40;23.30;51.50
69677;DHT22;56914;51.058;9.326;2022-07-29T08:26:18;23.90;50.90
69677;DHT22;56914;51.058;9.326;2022-07-29T08:28:48;24.30;50.20
69677;DHT22;56914;51.058;9.326;2022-07-29T08:31:17;24.90;49.60
69677;DHT22;56914;51.058;9.326;2022-07-29T08:33:45;25.40;49.20
69677;DHT22;56914;51.058;9.326;2022-07-29T08:36:14;25.90;48.40
69677;DHT22;56914;51.058;9.326;2022-07-29T08:38:42;26.00;47.50
69677;DHT22;56914;51.058;9.326;2022-07-29T08:41:14;25.80;47.20
69677;DHT22;56914;51.058;9.326;2022-07-29T08:43:44;25.90;47.10
69677;DHT22;56914;51.058;9.326;2022-07-29T08:46:12;26.00;46.20
69677;DHT22;56914;51.058;9.326;2022-07-29T08:48:40;26.20;45.80
69677;DHT22;56914;51.058;9.326;2022-07-29T08:51:12;26.50;45.20
69677;DHT22;56914;51.058;9.326;2022-07-29T08:53:47;26.50;44.20
69677;DHT22;56914;51.058;9.326;2022-07-29T08:56:16;26.30;44.20
69677;DHT22;56914;51.058;9.326;2022-07-29T08:58:44;26.00;44.80
69677;DHT22;56914;51.058;9.326;2022-07-29T09:01:21;26.00;45.30
69677;DHT22;56914;51.058;9.326;2022-07-29T09:04:09;25.90;45.60
69677;DHT22;56914;51.058;9.326;2022-07-29T09:06:39;26.00;45.60
69677;DHT22;56914;51.058;9.326;2022-07-29T09:09:09;26.00;44.80
69677;DHT22;56914;51.058;9.326;2022-07-29T09:11:37;26.00;44.50
69677;DHT22;56914;51.058;9.326;2022-07-29T09:14:05;25.90;44.20
69677;DHT22;56914;51.058;9.326;2022-07-29T09:16:50;25.80;44.20
69677;DHT22;56914;51.058;9.326;2022-07-29T09:19:27;25.70;44.30
69677;DHT22;56914;51.058;9.326;2022-07-29T09:21:57;25.90;44.20
69677;DHT22;56914;51.058;9.326;2022-07-29T09:24:27;26.20;44.10
69677;DHT22;56914;51.058;9.326;2022-07-29T09:26:55;26.30;43.90
69677;DHT22;56914;51.058;9.326;2022-07-29T09:29:23;26.50;43.60
69677;DHT22;56914;51.058;9.326;2022-07-29T09:31:52;26.60;43.60
69677;DHT22;56914;51.058;9.326;2022-07-29T09:34:23;26.80;43.50
69677;DHT22;56914;51.058;9.326;2022-07-29T09:36:51;27.20;43.60
69677;DHT22;56914;51.058;9.326;2022-07-29T09:39:29;27.60;43.20
69677;DHT22;56914;51.058;9.326;2022-07-29T09:42:00;27.90;42.70
69677;DHT22;56914;51.058;9.326;2022-07-29T09:44:40;28.30;42.50
69677;DHT22;56914;51.058;9.326;2022-07-29T09:47:08;28.60;42.00
69677;DHT22;56914;51.058;9.326;2022-07-29T09:49:52;29.10;41.60
69677;DHT22;56914;51.058;9.326;2022-07-29T09:52:21;29.40;40.90
69677;DHT22;56914;51.058;9.326;2022-07-29T09:54:50;29.50;41.00
69677;DHT22;56914;51.058;9.326;2022-07-29T09:57:24;29.50;41.50
69677;DHT22;56914;51.058;9.326;2022-07-29T09:59:57;29.60;41.10
69677;DHT22;56914;51.058;9.326;2022-07-29T10:02:29;29.70;40.70
69677;DHT22;56914;51.058;9.326;2022-07-29T10:04:58;29.60;40.50
69677;DHT22;56914;51.058;9.326;2022-07-29T10:07:26;29.50;40.40
69677;DHT22;56914;51.058;9.326;2022-07-29T10:10:17;29.40;40.20
69677;DHT22;56914;51.058;9.326;2022-07-29T10:12:52;29.40;40.40
69677;DHT22;56914;51.058;9.326;2022-07-29T10:15:21;29.50;40.30
69677;DHT22;56914;51.058;9.326;2022-07-29T10:17:50;29.80;39.70
69677;DHT22;56914;51.058;9.326;2022-07-29T10:20:18;30.00;39.70
69677;DHT22;56914;51.058;9.326;2022-07-29T10:22:47;30.20;39.60
69677;DHT22;56914;51.058;9.326;2022-07-29T10:25:21;30.30;39.10
69677;DHT22;56914;51.058;9.326;2022-07-29T10:27:49;30.10;38.90
69677;DHT22;56914;51.058;9.326;2022-07-29T10:30:19;30.00;39.10
69677;DHT22;56914;51.058;9.326;2022-07-29T10:35:44;30.60;39.00
69677;DHT22;56914;51.058;9.326;2022-07-29T10:41:16;31.20;38.20
69677;DHT22;56914;51.058;9.326;2022-07-29T10:44:02;31.10;38.10
69677;DHT22;56914;51.058;9.326;2022-07-29T10:46:34;31.30;38.10
69677;DHT22;56914;51.058;9.326;2022-07-29T10:49:06;31.50;37.90
69677;DHT22;56914;51.058;9.326;2022-07-29T10:51:52;31.70;37.70
69677;DHT22;56914;51.058;9.326;2022-07-29T10:57:14;31.50;37.30
69677;DHT22;56914;51.058;9.326;2022-07-29T10:59:44;31.60;37.10
69677;DHT22;56914;51.058;9.326;2022-07-29T11:05:13;31.80;37.50
69677;DHT22;56914;51.058;9.326;2022-07-29T11:10:27;31.60;36.30
69677;DHT22;56914;51.058;9.326;2022-07-29T11:12:58;31.50;36.50
69677;DHT22;56914;51.058;9.326;2022-07-29T11:15:27;31.50;36.60
69677;DHT22;56914;51.058;9.326;2022-07-29T11:18:07;31.50;36.20
69677;DHT22;56914;51.058;9.326;2022-07-29T11:20:43;31.40;36.20
69677;DHT22;56914;51.058;9.326;2022-07-29T11:23:19;31.10;36.40
69677;DHT22;56914;51.058;9.326;2022-07-29T11:26:12;31.20;36.60
69677;DHT22;56914;51.058;9.326;2022-07-29T11:28:50;31.50;36.60
69677;DHT22;56914;51.058;9.326;2022-07-29T11:31:20;31.80;36.20
69677;DHT22;56914;51.058;9.326;2022-07-29T11:37:13;32.10;35.80
69677;DHT22;56914;51.058;9.326;2022-07-29T11:39:43;32.00;35.80
69677;DHT22;56914;51.058;9.326;2022-07-29T11:45:09;32.30;35.20
69677;DHT22;56914;51.058;9.326;2022-07-29T11:48:00;32.70;34.60
69677;DHT22;56914;51.058;9.326;2022-07-29T11:50:48;33.00;33.50
69677;DHT22;56914;51.058;9.326;2022-07-29T11:53:17;32.70;33.90
69677;DHT22;56914;51.058;9.326;2022-07-29T11:55:53;32.50;34.30
69677;DHT22;56914;51.058;9.326;2022-07-29T11:58:33;32.50;34.60
69677;DHT22;56914;51.058;9.326;2022-07-29T12:01:19;32.30;34.10
69677;DHT22;56914;51.058;9.326;2022-07-29T12:04:02;32.10;34.40
69677;DHT22;56914;51.058;9.326;2022-07-29T12:10:14;32.00;34.20
69677;DHT22;56914;51.058;9.326;2022-07-29T12:13:07;31.80;33.80
69677;DHT22;56914;51.058;9.326;2022-07-29T12:15:51;31.90;34.20
69677;DHT22;56914;51.058;9.326;2022-07-29T12:18:36;32.40;34.10
69677;DHT22;56914;51.058;9.326;2022-07-29T12:21:18;32.70;33.80
69677;DHT22;56914;51.058;9.326;2022-07-29T12:26:53;33.00;33.50
69677;DHT22;56914;51.058;9.326;2022-07-29T12:29:54;33.10;33.30
69677;DHT22;56914;51.058;9.326;2022-07-29T12:32:40;33.20;33.20
69677;DHT22;56914;51.058;9.326;2022-07-29T12:35:30;33.00;33.30
69677;DHT22;56914;51.058;9.326;2022-07-29T12:38:25;32.90;33.50
69677;DHT22;56914;51.058;9.326;2022-07-29T12:41:01;32.60;33.40
69677;DHT22;56914;51.058;9.326;2022-07-29T12:43:35;32.30;33.50
69677;DHT22;56914;51.058;9.326;2022-07-29T12:46:14;32.20;33.50
69677;DHT22;56914;51.058;9.326;2022-07-29T12:48:57;32.20;33.60
69677;DHT22;56914;51.058;9.326;2022-07-29T12:51:37;32.20;33.60
69677;DHT22;56914;51.058;9.326;2022-07-29T12:54:25;32.30;33.70
69677;DHT22;56914;51.058;9.326;2022-07-29T12:57:15;32.40;33.50
69677;DHT22;56914;51.058;9.326;2022-07-29T13:00:02;32.30;33.30
69677;DHT22;56914;51.058;9.326;2022-07-29T13:02:36;32.20;33.40
69677;DHT22;56914;51.058;9.326;2022-07-29T13:05:08;32.20;33.60
69677;DHT22;56914;51.058;9.326;2022-07-29T13:14:03;32.50;34.20
69677;DHT22;56914;51.058;9.326;2022-07-29T13:17:00;32.50;33.60
69677;DHT22;56914;51.058;9.326;2022-07-29T13:19:39;32.60;33.60
69677;DHT22;56914;51.058;9.326;2022-07-29T13:22:11;32.90;33.40
69677;DHT22;56914;51.058;9.326;2022-07-29T13:24:53;33.30;33.30
69677;DHT22;56914;51.058;9.326;2022-07-29T13:27:25;33.60;33.00
69677;DHT22;56914;51.058;9.326;2022-07-29T13:29:57;33.60;32.60
69677;DHT22;56914;51.058;9.326;2022-07-29T13:32:36;33.60;32.40
69677;DHT22;56914;51.058;9.326;2022-07-29T13:35:09;33.60;32.50
69677;DHT22;56914;51.058;9.326;2022-07-29T13:37:46;33.50;32.20
69677;DHT22;56914;51.058;9.326;2022-07-29T13:40:18;33.50;32.10
69677;DHT22;56914;51.058;9.326;2022-07-29T13:42:48;33.40;31.90
69677;DHT22;56914;51.058;9.326;2022-07-29T13:45:31;33.30;32.20
69677;DHT22;56914;51.058;9.326;2022-07-29T13:48:01;33.10;32.20
69677;DHT22;56914;51.058;9.326;2022-07-29T13:50:34;32.90;32.40
69677;DHT22;56914;51.058;9.326;2022-07-29T13:53:05;33.00;32.70
69677;DHT22;56914;51.058;9.326;2022-07-29T13:55:54;33.20;32.60
69677;DHT22;56914;51.058;9.326;2022-07-29T13:58:30;33.50;32.20
69677;DHT22;56914;51.058;9.326;2022-07-29T14:01:03;33.90;31.90
69677;DHT22;56914;51.058;9.326;2022-07-29T14:03:49;34.00;31.40
69677;DHT22;56914;51.058;9.326;2022-07-29T14:06:27;33.90;31.20
69677;DHT22;56914;51.058;9.326;2022-07-29T14:09:20;34.10;31.40
69677;DHT22;56914;51.058;9.326;2022-07-29T14:12:10;34.30;30.90
69677;DHT22;56914;51.058;9.326;2022-07-29T14:14:46;34.30;30.80
69677;DHT22;56914;51.058;9.326;2022-07-29T14:17:50;34.20;30.60
69677;DHT22;56914;51.058;9.326;2022-07-29T14:20:32;34.20;30.70
69677;DHT22;56914;51.058;9.326;2022-07-29T14:23:04;34.50;30.40
69677;DHT22;56914;51.058;9.326;2022-07-29T14:25:46;34.60;30.20
69677;DHT22;56914;51.058;9.326;2022-07-29T14:28:28;34.80;30.20
69677;DHT22;56914;51.058;9.326;2022-07-29T14:30:56;34.70;30.10
69677;DHT22;56914;51.058;9.326;2022-07-29T14:33:26;35.00;29.90
69677;DHT22;56914;51.058;9.326;2022-07-29T14:35:54;35.20;29.70
69677;DHT22;56914;51.058;9.326;2022-07-29T14:38:26;35.20;29.00
69677;DHT22;56914;51.058;9.326;2022-07-29T14:40:54;35.00;29.10
69677;DHT22;56914;51.058;9.326;2022-07-29T14:43:23;34.90;29.30
69677;DHT22;56914;51.058;9.326;2022-07-29T14:45:51;34.90;28.90
69677;DHT22;56914;51.058;9.326;2022-07-29T14:48:27;35.00;29.20
69677;DHT22;56914;51.058;9.326;2022-07-29T14:50:55;35.20;29.20
69677;DHT22;56914;51.058;9.326;2022-07-29T14:53:29;35.30;29.00
69677;DHT22;56914;51.058;9.326;2022-07-29T14:55:57;35.20;29.00
69677;DHT22;56914;51.058;9.326;2022-07-29T14:58:45;35.10;29.10
69677;DHT22;56914;51.058;9.326;2022-07-29T15:01:17;35.30;28.90
69677;DHT22;56914;51.058;9.326;2022-07-29T15:03:47;35.50;28.90
69677;DHT22;56914;51.058;9.326;2022-07-29T15:06:31;35.40;28.90
69677;DHT22;56914;51.058;9.326;2022-07-29T15:08:59;35.10;28.90
69677;DHT22;56914;51.058;9.326;2022-07-29T15:11:26;34.80;29.00
69677;DHT22;56914;51.058;9.326;2022-07-29T15:13:54;34.70;28.90
69677;DHT22;56914;51.058;9.326;2022-07-29T15:16:22;34.50;29.00
69677;DHT22;56914;51.058;9.326;2022-07-29T15:18:51;34.20;29.20
69677;DHT22;56914;51.058;9.326;2022-07-29T15:21:26;34.00;29.30
69677;DHT22;56914;51.058;9.326;2022-07-29T15:23:54;33.80;29.20
69677;DHT22;56914;51.058;9.326;2022-07-29T15:26:22;33.50;29.30
69677;DHT22;56914;51.058;9.326;2022-07-29T15:28:51;33.30;29.50
69677;DHT22;56914;51.058;9.326;2022-07-29T15:31:18;33.10;29.80
69677;DHT22;56914;51.058;9.326;2022-07-29T15:33:46;32.90;29.70
69677;DHT22;56914;51.058;9.326;2022-07-29T15:36:21;32.70;29.90
69677;DHT22;56914;51.058;9.326;2022-07-29T15:39:10;32.60;29.80
69677;DHT22;56914;51.058;9.326;2022-07-29T15:41:38;32.60;29.90
69677;DHT22;56914;51.058;9.326;2022-07-29T15:44:06;32.60;30.00
69677;DHT22;56914;51.058;9.326;2022-07-29T15:46:36;32.90;30.00
69677;DHT22;56914;51.058;9.326;2022-07-29T15:49:22;33.00;29.80
69677;DHT22;56914;51.058;9.326;2022-07-29T15:52:16;32.90;29.80
69677;DHT22;56914;51.058;9.326;2022-07-29T15:54:52;32.80;29.90
69677;DHT22;56914;51.058;9.326;2022-07-29T15:57:20;32.70;29.80
69677;DHT22;56914;51.058;9.326;2022-07-29T15:59:48;32.60;29.90
69677;DHT22;56914;51.058;9.326;2022-07-29T16:02:16;32.60;29.90
69677;DHT22;56914;51.058;9.326;2022-07-29T16:04:44;32.60;30.00
69677;DHT22;56914;51.058;9.326;2022-07-29T16:07:12;32.60;29.90
69677;DHT22;56914;51.058;9.326;2022-07-29T16:09:42;32.60;30.00
69677;DHT22;56914;51.058;9.326;2022-07-29T16:12:18;32.60;30.00
69677;DHT22;56914;51.058;9.326;2022-07-29T16:14:45;32.50;30.10
69677;DHT22;56914;51.058;9.326;2022-07-29T16:17:15;32.50;30.30
69677;DHT22;56914;51.058;9.326;2022-07-29T16:19:43;32.50;30.40
69677;DHT22;56914;51.058;9.326;2022-07-29T16:22:11;32.50;30.40
69677;DHT22;56914;51.058;9.326;2022-07-29T16:24:39;32.50;30.30
69677;DHT22;56914;51.058;9.326;2022-07-29T16:27:09;32.50;30.30
69677;DHT22;56914;51.058;9.326;2022-07-29T16:29:37;32.50;30.40
69677;DHT22;56914;51.058;9.326;2022-07-29T16:32:05;32.40;30.30
69677;DHT22;56914;51.058;9.326;2022-07-29T16:34:34;32.30;30.30
69677;DHT22;56914;51.058;9.326;2022-07-29T16:37:02;32.20;30.40
69677;DHT22;56914;51.058;9.326;2022-07-29T16:39:30;32.10;30.40
69677;DHT22;56914;51.058;9.326;2022-07-29T16:41:59;31.90;30.40
69677;DHT22;56914;51.058;9.326;2022-07-29T16:44:32;31.70;30.40
69677;DHT22;56914;51.058;9.326;2022-07-29T16:47:01;31.60;30.40
69677;DHT22;56914;51.058;9.326;2022-07-29T16:49:30;31.30;30.60
69677;DHT22;56914;51.058;9.326;2022-07-29T16:51:58;31.30;30.80
69677;DHT22;56914;51.058;9.326;2022-07-29T16:54:26;31.40;30.90
69677;DHT22;56914;51.058;9.326;2022-07-29T16:56:54;31.40;30.90
69677;DHT22;56914;51.058;9.326;2022-07-29T16:59:23;31.40;31.00
69677;DHT22;56914;51.058;9.326;2022-07-29T17:01:52;31.30;30.90
69677;DHT22;56914;51.058;9.326;2022-07-29T17:04:20;31.30;31.00
69677;DHT22;56914;51.058;9.326;2022-07-29T17:06:49;31.30;31.10
69677;DHT22;56914;51.058;9.326;2022-07-29T17:09:17;31.20;31.10
69677;DHT22;56914;51.058;9.326;2022-07-29T17:11:45;31.10;31.10
69677;DHT22;56914;51.058;9.326;2022-07-29T17:14:21;31.00;31.20
69677;DHT22;56914;51.058;9.326;2022-07-29T17:16:52;31.00;31.40
69677;DHT22;56914;51.058;9.326;2022-07-29T17:19:27;30.90;31.40
69677;DHT22;56914;51.058;9.326;2022-07-29T17:21:57;30.70;31.50
69677;DHT22;56914;51.058;9.326;2022-07-29T17:24:45;30.60;31.70
69677;DHT22;56914;51.058;9.326;2022-07-29T17:27:13;30.50;31.80
69677;DHT22;56914;51.058;9.326;2022-07-29T17:29:41;30.40;31.90
69677;DHT22;56914;51.058;9.326;2022-07-29T17:32:10;30.40;31.90
69677;DHT22;56914;51.058;9.326;2022-07-29T17:34:40;30.30;31.90
69677;DHT22;56914;51.058;9.326;2022-07-29T17:37:10;30.30;32.00
69677;DHT22;56914;51.058;9.326;2022-07-29T17:39:38;30.10;33.20
69677;DHT22;56914;51.058;9.326;2022-07-29T17:42:07;29.60;35.50
69677;DHT22;56914;51.058;9.326;2022-07-29T17:44:35;29.20;36.80
69677;DHT22;56914;51.058;9.326;2022-07-29T17:47:03;28.70;38.10
69677;DHT22;56914;51.058;9.326;2022-07-29T17:49:34;28.20;39.40
69677;DHT22;56914;51.058;9.326;2022-07-29T17:52:03;27.70;40.70
69677;DHT22;56914;51.058;9.326;2022-07-29T18:12:00;24.20;47.70
69677;DHT22;56914;51.058;9.326;2022-07-29T18:14:32;24.00;48.30
69677;DHT22;56914;51.058;9.326;2022-07-29T18:17:02;23.90;48.70
69677;DHT22;56914;51.058;9.326;2022-07-29T18:19:30;23.80;49.70
69677;DHT22;56914;51.058;9.326;2022-07-29T18:21:58;23.60;51.50
69677;DHT22;56914;51.058;9.326;2022-07-29T18:24:31;23.50;52.30
69677;DHT22;56914;51.058;9.326;2022-07-29T18:27:00;23.40;53.00
69677;DHT22;56914;51.058;9.326;2022-07-29T18:29:28;23.30;53.00